sensor_id;sensor_type;location;lat;lon;timestamp;P1;durP1;ratioP1;P2;durP2;ratioP2
29934;SDS011;19905;53.370;-6.314;2024-02-28T00:01:34;38.90;;;7.75;;
29934;SDS011;19905;53.370;-6.314;2024-02-28T00:04:04;37.95;;;7.03;;
29934;SDS011;19905;53.370;-6.314;2024-02-28T00:06:34;50.30;;;6.95;;
29934;SDS011;19905;53.370;-6.314;2024-02-28T00:09:02;41.95;;;6.78;;
29934;SDS011;19905;53.370;-6.314;2024-02-28T00:11:31;36.83;;;6.82;;
29934;SDS011;19905;53.370;-6.314;2024-02-28T00:14:00;47.05;;;6.85;;
29934;SDS011;19905;53.370;-6.314;2024-02-28T00:16:29;36.13;;;6.45;;
29934;SDS011;19905;53.370;-6.314;2024-02-28T00:18:57;38.80;;;6.70;;
29934;SDS011;19905;53.370;-6.314;2024-02-28T00:21:27;46.25;;;7.20;;
29934;SDS011;19905;53.370;-6.314;2024-02-28T00:23:55;42.53;;;6.72;;
29934;SDS011;19905;53.370;-6.314;2024-02-28T00:26:23;38.28;;;7.18;;
29934;SDS011;19905;53.370;-6.314;2024-02-28T00:28:53;45.20;;;6.45;;
29934;SDS011;19905;53.370;-6.314;2024-02-28T00:31:22;46.67;;;6.60;;
29934;SDS011;19905;53.370;-6.314;2024-02-28T00:33:50;45.58;;;7.88;;
29934;SDS011;19905;53.370;-6.314;2024-02-28T00:36:19;45.83;;;8.57;;
29934;SDS011;19905;53.370;-6.314;2024-02-28T00:38:48;50.47;;;8.77;;
29934;SDS011;19905;53.370;-6.314;2024-02-28T00:41:17;54.40;;;9.32;;
29934;SDS011;19905;53.370;-6.314;2024-02-28T00:43:45;46.63;;;8.10;;
29934;SDS011;19905;53.370;-6.314;2024-02-28T00:46:13;44.63;;;7.70;;
29934;SDS011;19905;53.370;-6.314;2024-02-28T00:48:41;42.88;;;8.13;;
29934;SDS011;19905;53.370;-6.314;2024-02-28T00:51:13;42.55;;;6.88;;
29934;SDS011;19905;53.370;-6.314;2024-02-28T00:53:41;42.08;;;6.85;;
29934;SDS011;19905;53.370;-6.314;2024-02-28T00:56:11;38.28;;;6.95;;
29934;SDS011;19905;53.370;-6.314;2024-02-28T00:58:40;40.53;;;6.50;;
29934;SDS011;19905;53.370;-6.314;2024-02-28T01:01:08;45.88;;;6.90;;
29934;SDS011;19905;53.370;-6.314;2024-02-28T01:03:36;36.05;;;6.05;;
29934;SDS011;19905;53.370;-6.314;2024-02-28T01:06:05;41.22;;;6.55;;
29934;SDS011;19905;53.370;-6.314;2024-02-28T01:08:33;31.67;;;5.88;;
29934;SDS011;19905;53.370;-6.314;2024-02-28T01:11:02;48.17;;;6.80;;
29934;SDS011;19905;53.370;-6.314;2024-02-28T01:13:32;38.70;;;5.80;;
29934;SDS011;19905;53.370;-6.314;2024-02-28T01:16:01;38.22;;;6.03;;
29934;SDS011;19905;53.370;-6.314;2024-02-28T01:18:29;30.17;;;5.65;;
29934;SDS011;19905;53.370;-6.314;2024-02-28T01:20:59;40.17;;;6.38;;
29934;SDS011;19905;53.370;-6.314;2024-02-28T01:23:27;46.65;;;5.95;;
29934;SDS011;19905;53.370;-6.314;2024-02-28T01:25:56;35.83;;;6.15;;
29934;SDS011;19905;53.370;-6.314;2024-02-28T01:28:24;34.78;;;5.80;;
29934;SDS011;19905;53.370;-6.314;2024-02-28T01:30:54;42.72;;;6.30;;
29934;SDS011;19905;53.370;-6.314;2024-02-28T01:33:23;39.70;;;5.97;;
29934;SDS011;19905;53.370;-6.314;2024-02-28T01:35:52;36.88;;;5.70;;
29934;SDS011;19905;53.370;-6.314;2024-02-28T01:38:24;39.17;;;6.20;;
29934;SDS011;19905;53.370;-6.314;2024-02-28T01:40:54;38.15;;;6.10;;
29934;SDS011;19905;53.370;-6.314;2024-02-28T01:43:22;44.17;;;6.60;;
29934;SDS011;19905;53.370;-6.314;2024-02-28T01:45:50;38.80;;;5.28;;
29934;SDS011;19905;53.370;-6.314;2024-02-28T01:48:19;45.72;;;5.90;;
29934;SDS011;19905;53.370;-6.314;2024-02-28T01:50:48;40.42;;;5.55;;
29934;SDS011;19905;53.370;-6.314;2024-02-28T01:53:16;45.85;;;5.55;;
29934;SDS011;19905;53.370;-6.314;2024-02-28T01:55:47;36.55;;;5.47;;
29934;SDS011;19905;53.370;-6.314;2024-02-28T01:58:15;37.28;;;5.03;;
29934;SDS011;19905;53.370;-6.314;2024-02-28T02:00:44;34.33;;;5.10;;
29934;SDS011;19905;53.370;-6.314;2024-02-28T02:03:13;35.15;;;5.43;;
29934;SDS011;19905;53.370;-6.314;2024-02-28T02:05:42;39.10;;;5.65;;
29934;SDS011;19905;53.370;-6.314;2024-02-28T02:08:11;37.03;;;5.60;;
29934;SDS011;19905;53.370;-6.314;2024-02-28T02:10:39;43.83;;;5.10;;
29934;SDS011;19905;53.370;-6.314;2024-02-28T02:13:07;40.50;;;5.18;;
29934;SDS011;19905;53.370;-6.314;2024-02-28T02:15:36;34.55;;;4.95;;
29934;SDS011;19905;53.370;-6.314;2024-02-28T02:18:05;31.63;;;5.22;;
29934;SDS011;19905;53.370;-6.314;2024-02-28T02:20:34;30.58;;;4.50;;
29934;SDS011;19905;53.370;-6.314;2024-02-28T02:23:06;35.83;;;4.63;;
29934;SDS011;19905;53.370;-6.314;2024-02-28T02:25:34;38.22;;;4.63;;
29934;SDS011;19905;53.370;-6.314;2024-02-28T02:28:11;29.20;;;4.72;;
29934;SDS011;19905;53.370;-6.314;2024-02-28T02:30:40;29.35;;;4.50;;
29934;SDS011;19905;53.370;-6.314;2024-02-28T02:33:08;30.52;;;4.50;;
29934;SDS011;19905;53.370;-6.314;2024-02-28T02:35:37;34.35;;;4.30;;
29934;SDS011;19905;53.370;-6.314;2024-02-28T02:38:07;35.63;;;4.53;;
29934;SDS011;19905;53.370;-6.314;2024-02-28T02:40:35;34.17;;;4.13;;
29934;SDS011;19905;53.370;-6.314;2024-02-28T02:43:03;34.40;;;4.90;;
29934;SDS011;19905;53.370;-6.314;2024-02-28T02:45:31;40.53;;;5.45;;
29934;SDS011;19905;53.370;-6.314;2024-02-28T02:48:00;33.17;;;4.13;;
29934;SDS011;19905;53.370;-6.314;2024-02-28T02:50:28;33.97;;;4.07;;
29934;SDS011;19905;53.370;-6.314;2024-02-28T02:52:57;30.73;;;4.13;;
29934;SDS011;19905;53.370;-6.314;2024-02-28T02:55:27;33.75;;;4.80;;
29934;SDS011;19905;53.370;-6.314;2024-02-28T02:57:55;40.58;;;5.05;;
29934;SDS011;19905;53.370;-6.314;2024-02-28T03:00:23;41.75;;;4.90;;
29934;SDS011;19905;53.370;-6.314;2024-02-28T03:02:52;36.25;;;4.40;;
29934;SDS011;19905;53.370;-6.314;2024-02-28T03:05:20;33.58;;;4.40;;
29934;SDS011;19905;53.370;-6.314;2024-02-28T03:07:48;36.83;;;4.43;;
29934;SDS011;19905;53.370;-6.314;2024-02-28T03:10:17;41.13;;;4.57;;
29934;SDS011;19905;53.370;-6.314;2024-02-28T03:12:46;39.42;;;4.40;;
29934;SDS011;19905;53.370;-6.314;2024-02-28T03:15:15;32.85;;;4.13;;
29934;SDS011;19905;53.370;-6.314;2024-02-28T03:17:43;40.40;;;4.72;;
29934;SDS011;19905;53.370;-6.314;2024-02-28T03:20:12;29.60;;;4.57;;
29934;SDS011;19905;53.370;-6.314;2024-02-28T03:22:41;33.38;;;5.03;;
29934;SDS011;19905;53.370;-6.314;2024-02-28T03:25:09;37.63;;;4.00;;
29934;SDS011;19905;53.370;-6.314;2024-02-28T03:27:38;32.55;;;4.45;;
29934;SDS011;19905;53.370;-6.314;2024-02-28T03:30:08;28.65;;;4.53;;
29934;SDS011;19905;53.370;-6.314;2024-02-28T03:32:36;38.42;;;4.93;;
29934;SDS011;19905;53.370;-6.314;2024-02-28T03:35:05;31.90;;;4.72;;
29934;SDS011;19905;53.370;-6.314;2024-02-28T03:37:35;28.50;;;5.63;;
29934;SDS011;19905;53.370;-6.314;2024-02-28T03:40:04;40.58;;;6.60;;
29934;SDS011;19905;53.370;-6.314;2024-02-28T03:42:33;39.25;;;6.80;;
29934;SDS011;19905;53.370;-6.314;2024-02-28T03:45:01;37.42;;;5.55;;
29934;SDS011;19905;53.370;-6.314;2024-02-28T03:47:31;30.15;;;5.63;;
29934;SDS011;19905;53.370;-6.314;2024-02-28T03:50:00;34.38;;;5.90;;
29934;SDS011;19905;53.370;-6.314;2024-02-28T03:52:30;32.47;;;5.40;;
29934;SDS011;19905;53.370;-6.314;2024-02-28T03:54:59;35.03;;;4.55;;
29934;SDS011;19905;53.370;-6.314;2024-02-28T03:57:27;35.03;;;5.55;;
29934;SDS011;19905;53.370;-6.314;2024-02-28T03:59:55;37.10;;;5.45;;
29934;SDS011;19905;53.370;-6.314;2024-02-28T04:02:24;34.05;;;4.63;;
29934;SDS011;19905;53.370;-6.314;2024-02-28T04:04:54;32.67;;;4.70;;
29934;SDS011;19905;53.370;-6.314;2024-02-28T04:07:22;35.28;;;4.75;;
29934;SDS011;19905;53.370;-6.314;2024-02-28T04:09:50;37.13;;;5.18;;
29934;SDS011;19905;53.370;-6.314;2024-02-28T04:12:19;29.75;;;4.78;;
29934;SDS011;19905;53.370;-6.314;2024-02-28T04:14:47;26.42;;;4.22;;
29934;SDS011;19905;53.370;-6.314;2024-02-28T04:17:15;36.03;;;5.20;;
29934;SDS011;19905;53.370;-6.314;2024-02-28T04:19:44;36.28;;;4.97;;
29934;SDS011;19905;53.370;-6.314;2024-02-28T04:22:14;32.63;;;4.88;;
29934;SDS011;19905;53.370;-6.314;2024-02-28T04:24:43;30.25;;;4.30;;
29934;SDS011;19905;53.370;-6.314;2024-02-28T04:27:12;41.50;;;5.45;;
29934;SDS011;19905;53.370;-6.314;2024-02-28T04:29:40;34.50;;;4.07;;
29934;SDS011;19905;53.370;-6.314;2024-02-28T04:32:08;28.67;;;4.40;;
29934;SDS011;19905;53.370;-6.314;2024-02-28T04:34:37;30.95;;;4.45;;
29934;SDS011;19905;53.370;-6.314;2024-02-28T04:37:05;41.47;;;5.25;;
29934;SDS011;19905;53.370;-6.314;2024-02-28T04:39:35;33.80;;;4.45;;
29934;SDS011;19905;53.370;-6.314;2024-02-28T04:42:04;39.45;;;4.85;;
29934;SDS011;19905;53.370;-6.314;2024-02-28T04:44:32;35.38;;;5.18;;
29934;SDS011;19905;53.370;-6.314;2024-02-28T04:47:01;33.47;;;4.40;;
29934;SDS011;19905;53.370;-6.314;2024-02-28T04:49:29;29.90;;;4.20;;
29934;SDS011;19905;53.370;-6.314;2024-02-28T04:51:58;28.20;;;4.38;;
29934;SDS011;19905;53.370;-6.314;2024-02-28T04:54:26;33.20;;;4.53;;
29934;SDS011;19905;53.370;-6.314;2024-02-28T04:56:56;35.28;;;4.60;;
29934;SDS011;19905;53.370;-6.314;2024-02-28T04:59:24;38.42;;;5.07;;
29934;SDS011;19905;53.370;-6.314;2024-02-28T05:01:53;28.67;;;4.55;;
29934;SDS011;19905;53.370;-6.314;2024-02-28T05:04:21;32.50;;;4.97;;
29934;SDS011;19905;53.370;-6.314;2024-02-28T05:06:50;34.08;;;4.72;;
29934;SDS011;19905;53.370;-6.314;2024-02-28T05:09:18;32.67;;;4.45;;
29934;SDS011;19905;53.370;-6.314;2024-02-28T05:11:47;31.95;;;4.65;;
29934;SDS011;19905;53.370;-6.314;2024-02-28T05:14:17;26.23;;;3.70;;
29934;SDS011;19905;53.370;-6.314;2024-02-28T05:16:46;28.10;;;4.70;;
29934;SDS011;19905;53.370;-6.314;2024-02-28T05:19:15;30.02;;;4.38;;
29934;SDS011;19905;53.370;-6.314;2024-02-28T05:21:44;41.90;;;4.88;;
29934;SDS011;19905;53.370;-6.314;2024-02-28T05:24:13;26.95;;;4.35;;
29934;SDS011;19905;53.370;-6.314;2024-02-28T05:26:41;35.22;;;4.75;;
29934;SDS011;19905;53.370;-6.314;2024-02-28T05:29:09;36.80;;;4.43;;
29934;SDS011;19905;53.370;-6.314;2024-02-28T05:31:39;43.47;;;5.25;;
29934;SDS011;19905;53.370;-6.314;2024-02-28T05:34:08;33.53;;;5.10;;
29934;SDS011;19905;53.370;-6.314;2024-02-28T05:36:36;37.03;;;4.55;;
29934;SDS011;19905;53.370;-6.314;2024-02-28T05:39:04;37.95;;;4.30;;
29934;SDS011;19905;53.370;-6.314;2024-02-28T05:41:36;32.58;;;4.75;;
29934;SDS011;19905;53.370;-6.314;2024-02-28T05:44:04;30.45;;;4.57;;
29934;SDS011;19905;53.370;-6.314;2024-02-28T05:46:32;34.20;;;4.35;;
29934;SDS011;19905;53.370;-6.314;2024-02-28T05:49:02;36.22;;;4.25;;
29934;SDS011;19905;53.370;-6.314;2024-02-28T05:51:31;32.47;;;4.65;;
29934;SDS011;19905;53.370;-6.314;2024-02-28T05:53:59;32.85;;;4.28;;
29934;SDS011;19905;53.370;-6.314;2024-02-28T05:56:29;34.40;;;4.28;;
29934;SDS011;19905;53.370;-6.314;2024-02-28T05:58:57;32.78;;;4.55;;
29934;SDS011;19905;53.370;-6.314;2024-02-28T06:01:25;32.47;;;4.70;;
29934;SDS011;19905;53.370;-6.314;2024-02-28T06:03:54;34.63;;;4.10;;
29934;SDS011;19905;53.370;-6.314;2024-02-28T06:06:24;34.63;;;4.55;;
29934;SDS011;19905;53.370;-6.314;2024-02-28T06:08:53;34.55;;;4.57;;
29934;SDS011;19905;53.370;-6.314;2024-02-28T06:11:21;38.75;;;4.97;;
29934;SDS011;19905;53.370;-6.314;2024-02-28T06:13:50;33.40;;;4.47;;
29934;SDS011;19905;53.370;-6.314;2024-02-28T06:16:19;35.75;;;4.95;;
29934;SDS011;19905;53.370;-6.314;2024-02-28T06:18:48;31.38;;;4.55;;
29934;SDS011;19905;53.370;-6.314;2024-02-28T06:21:16;33.58;;;4.80;;
29934;SDS011;19905;53.370;-6.314;2024-02-28T06:23:46;37.67;;;5.13;;
29934;SDS011;19905;53.370;-6.314;2024-02-28T06:26:14;40.03;;;5.00;;
29934;SDS011;19905;53.370;-6.314;2024-02-28T06:28:44;34.13;;;4.65;;
29934;SDS011;19905;53.370;-6.314;2024-02-28T06:31:14;33.30;;;4.72;;
29934;SDS011;19905;53.370;-6.314;2024-02-28T06:33:42;26.77;;;4.78;;
29934;SDS011;19905;53.370;-6.314;2024-02-28T06:36:11;36.38;;;4.50;;
29934;SDS011;19905;53.370;-6.314;2024-02-28T06:38:39;33.70;;;5.30;;
29934;SDS011;19905;53.370;-6.314;2024-02-28T06:41:09;34.78;;;5.20;;
29934;SDS011;19905;53.370;-6.314;2024-02-28T06:43:38;33.55;;;4.45;;
29934;SDS011;19905;53.370;-6.314;2024-02-28T06:46:07;42.85;;;5.40;;
29934;SDS011;19905;53.370;-6.314;2024-02-28T06:48:36;32.08;;;4.90;;
29934;SDS011;19905;53.370;-6.314;2024-02-28T06:51:05;31.80;;;4.85;;
29934;SDS011;19905;53.370;-6.314;2024-02-28T06:53:33;32.13;;;4.68;;
29934;SDS011;19905;53.370;-6.314;2024-02-28T06:56:02;30.92;;;4.70;;
29934;SDS011;19905;53.370;-6.314;2024-02-28T06:58:32;33.97;;;4.55;;
29934;SDS011;19905;53.370;-6.314;2024-02-28T07:01:00;34.15;;;4.30;;
29934;SDS011;19905;53.370;-6.314;2024-02-28T07:03:30;34.58;;;4.25;;
29934;SDS011;19905;53.370;-6.314;2024-02-28T07:05:58;31.05;;;4.10;;
29934;SDS011;19905;53.370;-6.314;2024-02-28T07:08:26;35.38;;;4.82;;
29934;SDS011;19905;53.370;-6.314;2024-02-28T07:10:55;31.65;;;4.57;;
29934;SDS011;19905;53.370;-6.314;2024-02-28T07:13:24;34.85;;;4.45;;
29934;SDS011;19905;53.370;-6.314;2024-02-28T07:15:55;36.47;;;5.00;;
29934;SDS011;19905;53.370;-6.314;2024-02-28T07:18:27;32.90;;;4.43;;
29934;SDS011;19905;53.370;-6.314;2024-02-28T07:20:57;29.95;;;5.13;;
29934;SDS011;19905;53.370;-6.314;2024-02-28T07:23:25;35.35;;;4.97;;
29934;SDS011;19905;53.370;-6.314;2024-02-28T07:25:53;39.53;;;5.38;;
29934;SDS011;19905;53.370;-6.314;2024-02-28T07:28:21;37.75;;;6.22;;
29934;SDS011;19905;53.370;-6.314;2024-02-28T07:30:49;40.08;;;5.90;;
29934;SDS011;19905;53.370;-6.314;2024-02-28T07:33:19;47.65;;;6.00;;
29934;SDS011;19905;53.370;-6.314;2024-02-28T07:35:48;36.10;;;5.38;;
29934;SDS011;19905;53.370;-6.314;2024-02-28T07:38:17;44.22;;;5.68;;
29934;SDS011;19905;53.370;-6.314;2024-02-28T07:40:47;35.78;;;5.13;;
29934;SDS011;19905;53.370;-6.314;2024-02-28T07:43:16;35.67;;;4.63;;
29934;SDS011;19905;53.370;-6.314;2024-02-28T07:45:44;31.65;;;4.60;;
29934;SDS011;19905;53.370;-6.314;2024-02-28T07:48:12;36.63;;;4.57;;
29934;SDS011;19905;53.370;-6.314;2024-02-28T07:50:42;34.80;;;5.25;;
29934;SDS011;19905;53.370;-6.314;2024-02-28T07:53:10;38.53;;;5.18;;
29934;SDS011;19905;53.370;-6.314;2024-02-28T07:55:39;26.25;;;4.60;;
29934;SDS011;19905;53.370;-6.314;2024-02-28T07:58:07;25.92;;;4.75;;
29934;SDS011;19905;53.370;-6.314;2024-02-28T08:00:36;14.27;;;2.10;;
29934;SDS011;19905;53.370;-6.314;2024-02-28T08:03:05;11.48;;;2.20;;
29934;SDS011;19905;53.370;-6.314;2024-02-28T08:05:33;8.90;;;1.90;;
29934;SDS011;19905;53.370;-6.314;2024-02-28T08:08:07;11.23;;;2.00;;
29934;SDS011;19905;53.370;-6.314;2024-02-28T08:10:36;10.43;;;1.85;;
29934;SDS011;19905;53.370;-6.314;2024-02-28T08:13:05;6.97;;;1.50;;
29934;SDS011;19905;53.370;-6.314;2024-02-28T08:15:34;13.10;;;2.08;;
29934;SDS011;19905;53.370;-6.314;2024-02-28T08:18:03;6.65;;;1.40;;
29934;SDS011;19905;53.370;-6.314;2024-02-28T08:20:31;4.50;;;1.10;;
29934;SDS011;19905;53.370;-6.314;2024-02-28T08:22:59;9.05;;;1.83;;
29934;SDS011;19905;53.370;-6.314;2024-02-28T08:25:29;5.18;;;1.63;;
29934;SDS011;19905;53.370;-6.314;2024-02-28T08:27:57;4.28;;;1.48;;
29934;SDS011;19905;53.370;-6.314;2024-02-28T08:30:25;3.72;;;1.70;;
29934;SDS011;19905;53.370;-6.314;2024-02-28T08:32:54;9.05;;;3.78;;
29934;SDS011;19905;53.370;-6.314;2024-02-28T08:35:22;9.98;;;4.13;;
29934;SDS011;19905;53.370;-6.314;2024-02-28T08:37:50;1.35;;;0.70;;
29934;SDS011;19905;53.370;-6.314;2024-02-28T08:40:19;3.83;;;1.00;;
29934;SDS011;19905;53.370;-6.314;2024-02-28T08:42:49;1.35;;;0.50;;
29934;SDS011;19905;53.370;-6.314;2024-02-28T08:45:20;1.65;;;0.40;;
29934;SDS011;19905;53.370;-6.314;2024-02-28T08:47:48;3.92;;;1.10;;
29934;SDS011;19905;53.370;-6.314;2024-02-28T08:50:17;10.02;;;3.88;;
29934;SDS011;19905;53.370;-6.314;2024-02-28T08:52:45;7.60;;;2.67;;
29934;SDS011;19905;53.370;-6.314;2024-02-28T08:55:13;3.35;;;1.35;;
29934;SDS011;19905;53.370;-6.314;2024-02-28T08:57:45;3.72;;;1.27;;
29934;SDS011;19905;53.370;-6.314;2024-02-28T09:00:15;5.60;;;2.08;;
29934;SDS011;19905;53.370;-6.314;2024-02-28T09:02:44;7.35;;;3.17;;
29934;SDS011;19905;53.370;-6.314;2024-02-28T09:05:13;9.23;;;3.88;;
29934;SDS011;19905;53.370;-6.314;2024-02-28T09:07:41;9.00;;;4.32;;
29934;SDS011;19905;53.370;-6.314;2024-02-28T09:10:10;10.88;;;4.97;;
29934;SDS011;19905;53.370;-6.314;2024-02-28T09:12:38;5.30;;;2.45;;
29934;SDS011;19905;53.370;-6.314;2024-02-28T09:15:07;2.70;;;1.23;;
29934;SDS011;19905;53.370;-6.314;2024-02-28T09:17:37;1.65;;;0.80;;
29934;SDS011;19905;53.370;-6.314;2024-02-28T09:20:06;4.18;;;2.00;;
29934;SDS011;19905;53.370;-6.314;2024-02-28T09:22:35;1.83;;;0.63;;
29934;SDS011;19905;53.370;-6.314;2024-02-28T09:25:04;0.35;;;0.30;;
29934;SDS011;19905;53.370;-6.314;2024-02-28T09:27:35;1.25;;;0.38;;
29934;SDS011;19905;53.370;-6.314;2024-02-28T09:30:05;0.45;;;0.40;;
29934;SDS011;19905;53.370;-6.314;2024-02-28T09:32:34;0.50;;;0.25;;
29934;SDS011;19905;53.370;-6.314;2024-02-28T09:35:04;0.77;;;0.30;;
29934;SDS011;19905;53.370;-6.314;2024-02-28T09:37:33;0.60;;;0.30;;
29934;SDS011;19905;53.370;-6.314;2024-02-28T09:40:01;1.95;;;0.30;;
29934;SDS011;19905;53.370;-6.314;2024-02-28T09:42:30;0.63;;;0.40;;
29934;SDS011;19905;53.370;-6.314;2024-02-28T09:44:59;1.02;;;0.43;;
29934;SDS011;19905;53.370;-6.314;2024-02-28T09:47:29;0.73;;;0.30;;
29934;SDS011;19905;53.370;-6.314;2024-02-28T09:49:57;0.40;;;0.40;;
29934;SDS011;19905;53.370;-6.314;2024-02-28T09:52:27;0.60;;;0.40;;
29934;SDS011;19905;53.370;-6.314;2024-02-28T09:54:56;0.52;;;0.47;;
29934;SDS011;19905;53.370;-6.314;2024-02-28T09:57:25;0.80;;;0.50;;
29934;SDS011;19905;53.370;-6.314;2024-02-28T09:59:55;0.65;;;0.30;;
29934;SDS011;19905;53.370;-6.314;2024-02-28T10:02:24;0.50;;;0.30;;
29934;SDS011;19905;53.370;-6.314;2024-02-28T10:04:53;0.30;;;0.30;;
29934;SDS011;19905;53.370;-6.314;2024-02-28T10:07:21;0.45;;;0.40;;
29934;SDS011;19905;53.370;-6.314;2024-02-28T10:09:51;0.45;;;0.40;;
29934;SDS011;19905;53.370;-6.314;2024-02-28T10:12:20;0.47;;;0.40;;
29934;SDS011;19905;53.370;-6.314;2024-02-28T10:14:49;0.60;;;0.30;;
29934;SDS011;19905;53.370;-6.314;2024-02-28T10:17:18;0.90;;;0.43;;
29934;SDS011;19905;53.370;-6.314;2024-02-28T10:19:46;0.63;;;0.40;;
29934;SDS011;19905;53.370;-6.314;2024-02-28T10:22:15;0.30;;;0.20;;
29934;SDS011;19905;53.370;-6.314;2024-02-28T10:24:43;0.52;;;0.30;;
29934;SDS011;19905;53.370;-6.314;2024-02-28T10:27:16;0.30;;;0.30;;
29934;SDS011;19905;53.370;-6.314;2024-02-28T10:29:46;0.30;;;0.30;;
29934;SDS011;19905;53.370;-6.314;2024-02-28T10:32:14;0.50;;;0.30;;
29934;SDS011;19905;53.370;-6.314;2024-02-28T10:34:43;3.80;;;0.38;;
29934;SDS011;19905;53.370;-6.314;2024-02-28T10:37:12;0.38;;;0.30;;
29934;SDS011;19905;53.370;-6.314;2024-02-28T10:39:41;0.30;;;0.30;;
29934;SDS011;19905;53.370;-6.314;2024-02-28T10:42:10;0.55;;;0.30;;
29934;SDS011;19905;53.370;-6.314;2024-02-28T10:44:41;0.52;;;0.38;;
29934;SDS011;19905;53.370;-6.314;2024-02-28T10:47:09;1.52;;;0.50;;
29934;SDS011;19905;53.370;-6.314;2024-02-28T10:49:39;0.82;;;0.40;;
29934;SDS011;19905;53.370;-6.314;2024-02-28T10:52:07;2.72;;;0.40;;
29934;SDS011;19905;53.370;-6.314;2024-02-28T10:54:37;0.55;;;0.40;;
29934;SDS011;19905;53.370;-6.314;2024-02-28T10:57:10;2.25;;;0.40;;
29934;SDS011;19905;53.370;-6.314;2024-02-28T10:59:41;0.57;;;0.30;;
29934;SDS011;19905;53.370;-6.314;2024-02-28T11:02:11;0.57;;;0.40;;
29934;SDS011;19905;53.370;-6.314;2024-02-28T11:04:40;1.42;;;0.40;;
29934;SDS011;19905;53.370;-6.314;2024-02-28T11:07:08;0.65;;;0.50;;
29934;SDS011;19905;53.370;-6.314;2024-02-28T11:09:37;0.38;;;0.32;;
29934;SDS011;19905;53.370;-6.314;2024-02-28T11:12:05;0.50;;;0.40;;
29934;SDS011;19905;53.370;-6.314;2024-02-28T11:14:33;0.60;;;0.40;;
29934;SDS011;19905;53.370;-6.314;2024-02-28T11:17:05;0.60;;;0.40;;
29934;SDS011;19905;53.370;-6.314;2024-02-28T11:19:33;1.02;;;0.50;;
29934;SDS011;19905;53.370;-6.314;2024-02-28T11:22:02;3.75;;;0.50;;
29934;SDS011;19905;53.370;-6.314;2024-02-28T11:24:33;2.17;;;0.55;;
29934;SDS011;19905;53.370;-6.314;2024-02-28T11:27:04;1.23;;;0.77;;
29934;SDS011;19905;53.370;-6.314;2024-02-28T11:29:34;1.23;;;0.73;;
29934;SDS011;19905;53.370;-6.314;2024-02-28T11:32:02;0.70;;;0.40;;
29934;SDS011;19905;53.370;-6.314;2024-02-28T11:34:33;0.60;;;0.55;;
29934;SDS011;19905;53.370;-6.314;2024-02-28T11:37:02;0.77;;;0.52;;
29934;SDS011;19905;53.370;-6.314;2024-02-28T11:39:31;0.88;;;0.55;;
29934;SDS011;19905;53.370;-6.314;2024-02-28T11:42:08;0.93;;;0.40;;
29934;SDS011;19905;53.370;-6.314;2024-02-28T11:44:37;1.77;;;0.50;;
29934;SDS011;19905;53.370;-6.314;2024-02-28T11:47:05;0.60;;;0.50;;
29934;SDS011;19905;53.370;-6.314;2024-02-28T11:49:35;3.28;;;0.70;;
29934;SDS011;19905;53.370;-6.314;2024-02-28T11:52:03;3.00;;;0.60;;
29934;SDS011;19905;53.370;-6.314;2024-02-28T11:54:32;1.40;;;0.60;;
29934;SDS011;19905;53.370;-6.314;2024-02-28T11:57:01;0.82;;;0.60;;
29934;SDS011;19905;53.370;-6.314;2024-02-28T11:59:31;1.13;;;0.50;;
29934;SDS011;19905;53.370;-6.314;2024-02-28T12:01:59;1.95;;;0.57;;
29934;SDS011;19905;53.370;-6.314;2024-02-28T12:04:28;0.80;;;0.50;;
29934;SDS011;19905;53.370;-6.314;2024-02-28T12:06:58;3.15;;;0.70;;
29934;SDS011;19905;53.370;-6.314;2024-02-28T12:09:27;0.80;;;0.60;;
29934;SDS011;19905;53.370;-6.314;2024-02-28T12:12:07;2.92;;;0.73;;
29934;SDS011;19905;53.370;-6.314;2024-02-28T12:14:36;2.58;;;0.70;;
29934;SDS011;19905;53.370;-6.314;2024-02-28T12:17:05;0.93;;;0.63;;
29934;SDS011;19905;53.370;-6.314;2024-02-28T12:19:34;0.68;;;0.50;;
29934;SDS011;19905;53.370;-6.314;2024-02-28T12:22:04;1.45;;;0.57;;
29934;SDS011;19905;53.370;-6.314;2024-02-28T12:24:33;1.02;;;0.60;;
29934;SDS011;19905;53.370;-6.314;2024-02-28T12:27:01;1.25;;;0.55;;
29934;SDS011;19905;53.370;-6.314;2024-02-28T12:29:29;1.88;;;0.60;;
29934;SDS011;19905;53.370;-6.314;2024-02-28T12:31:58;1.80;;;0.65;;
29934;SDS011;19905;53.370;-6.314;2024-02-28T12:34:27;0.93;;;0.60;;
29934;SDS011;19905;53.370;-6.314;2024-02-28T12:36:55;2.13;;;0.70;;
29934;SDS011;19905;53.370;-6.314;2024-02-28T12:39:26;1.13;;;0.60;;
29934;SDS011;19905;53.370;-6.314;2024-02-28T12:41:55;1.83;;;0.52;;
29934;SDS011;19905;53.370;-6.314;2024-02-28T12:44:23;1.42;;;0.70;;
29934;SDS011;19905;53.370;-6.314;2024-02-28T12:46:52;0.82;;;0.60;;
29934;SDS011;19905;53.370;-6.314;2024-02-28T12:49:20;2.97;;;0.50;;
29934;SDS011;19905;53.370;-6.314;2024-02-28T12:51:49;2.25;;;0.50;;
29934;SDS011;19905;53.370;-6.314;2024-02-28T12:54:18;1.02;;;0.75;;
29934;SDS011;19905;53.370;-6.314;2024-02-28T12:56:49;1.23;;;0.80;;
29934;SDS011;19905;53.370;-6.314;2024-02-28T12:59:17;1.42;;;0.75;;
29934;SDS011;19905;53.370;-6.314;2024-02-28T13:01:46;1.23;;;0.65;;
29934;SDS011;19905;53.370;-6.314;2024-02-28T13:04:15;2.80;;;0.70;;
29934;SDS011;19905;53.370;-6.314;2024-02-28T13:06:44;1.17;;;0.70;;
29934;SDS011;19905;53.370;-6.314;2024-02-28T13:09:12;1.92;;;0.80;;
29934;SDS011;19905;53.370;-6.314;2024-02-28T13:11:40;2.22;;;0.85;;
29934;SDS011;19905;53.370;-6.314;2024-02-28T13:14:10;1.13;;;0.80;;
29934;SDS011;19905;53.370;-6.314;2024-02-28T13:16:38;2.05;;;0.80;;
29934;SDS011;19905;53.370;-6.314;2024-02-28T13:19:07;2.42;;;0.90;;
29934;SDS011;19905;53.370;-6.314;2024-02-28T13:21:35;0.95;;;0.80;;
29934;SDS011;19905;53.370;-6.314;2024-02-28T13:24:06;1.00;;;0.90;;
29934;SDS011;19905;53.370;-6.314;2024-02-28T13:26:35;0.82;;;0.70;;
29934;SDS011;19905;53.370;-6.314;2024-02-28T13:29:03;2.25;;;0.95;;
29934;SDS011;19905;53.370;-6.314;2024-02-28T13:31:33;0.90;;;0.60;;
29934;SDS011;19905;53.370;-6.314;2024-02-28T13:34:02;0.82;;;0.80;;
29934;SDS011;19905;53.370;-6.314;2024-02-28T13:36:30;1.10;;;0.90;;
29934;SDS011;19905;53.370;-6.314;2024-02-28T13:38:59;1.00;;;0.80;;
29934;SDS011;19905;53.370;-6.314;2024-02-28T13:41:27;3.33;;;0.80;;
29934;SDS011;19905;53.370;-6.314;2024-02-28T13:43:55;0.88;;;0.80;;
29934;SDS011;19905;53.370;-6.314;2024-02-28T13:46:24;1.48;;;0.80;;
29934;SDS011;19905;53.370;-6.314;2024-02-28T13:48:53;1.85;;;0.80;;
29934;SDS011;19905;53.370;-6.314;2024-02-28T13:51:22;2.05;;;0.60;;
29934;SDS011;19905;53.370;-6.314;2024-02-28T13:53:50;2.38;;;0.70;;
29934;SDS011;19905;53.370;-6.314;2024-02-28T13:56:21;1.42;;;0.75;;
29934;SDS011;19905;53.370;-6.314;2024-02-28T13:58:49;0.82;;;0.60;;
29934;SDS011;19905;53.370;-6.314;2024-02-28T14:01:20;1.60;;;0.80;;
29934;SDS011;19905;53.370;-6.314;2024-02-28T14:03:49;2.15;;;0.80;;
29934;SDS011;19905;53.370;-6.314;2024-02-28T14:06:19;2.47;;;0.70;;
29934;SDS011;19905;53.370;-6.314;2024-02-28T14:08:49;0.85;;;0.80;;
29934;SDS011;19905;53.370;-6.314;2024-02-28T14:11:20;1.95;;;1.08;;
29934;SDS011;19905;53.370;-6.314;2024-02-28T14:13:49;1.20;;;0.93;;
29934;SDS011;19905;53.370;-6.314;2024-02-28T14:16:17;1.23;;;0.90;;
29934;SDS011;19905;53.370;-6.314;2024-02-28T14:18:46;1.33;;;0.80;;
29934;SDS011;19905;53.370;-6.314;2024-02-28T14:21:15;1.15;;;0.90;;
29934;SDS011;19905;53.370;-6.314;2024-02-28T14:23:45;2.38;;;1.08;;
29934;SDS011;19905;53.370;-6.314;2024-02-28T14:26:15;2.75;;;0.93;;
29934;SDS011;19905;53.370;-6.314;2024-02-28T14:28:43;1.80;;;0.80;;
29934;SDS011;19905;53.370;-6.314;2024-02-28T14:31:12;2.58;;;0.98;;
29934;SDS011;19905;53.370;-6.314;2024-02-28T14:33:40;1.55;;;1.35;;
29934;SDS011;19905;53.370;-6.314;2024-02-28T14:36:10;2.45;;;1.35;;